sensor_id;sensor_type;location;lat;lon;timestamp;P1;durP1;ratioP1;P2;durP2;ratioP2
48795;SDS011;34607;48.520;-1.330;2024-01-10T08:44:44;47.70;;;28.80;;
48795;SDS011;34607;48.520;-1.330;2024-01-10T08:47:11;47.13;;;29.00;;
48795;SDS011;34607;48.520;-1.330;2024-01-10T08:49:39;44.13;;;28.20;;
48795;SDS011;34607;48.520;-1.330;2024-01-10T08:52:06;47.45;;;28.23;;
48795;SDS011;34607;48.520;-1.330;2024-01-10T08:54:33;45.80;;;29.70;;
48795;SDS011;34607;48.520;-1.330;2024-01-10T08:57:00;51.47;;;31.33;;
48795;SDS011;34607;48.520;-1.330;2024-01-10T08:59:29;50.38;;;31.33;;
48795;SDS011;34607;48.520;-1.330;2024-01-10T09:01:57;51.33;;;32.15;;
48795;SDS011;34607;48.520;-1.330;2024-01-10T09:04:24;44.08;;;29.08;;
48795;SDS011;34607;48.520;-1.330;2024-01-10T09:06:52;49.83;;;31.58;;
48795;SDS011;34607;48.520;-1.330;2024-01-10T09:09:19;49.45;;;30.50;;
48795;SDS011;34607;48.520;-1.330;2024-01-10T09:11:47;51.20;;;31.85;;
48795;SDS011;34607;48.520;-1.330;2024-01-10T09:14:14;46.78;;;29.20;;
48795;SDS011;34607;48.520;-1.330;2024-01-10T09:16:41;51.83;;;30.17;;
48795;SDS011;34607;48.520;-1.330;2024-01-10T09:19:10;54.28;;;30.83;;
48795;SDS011;34607;48.520;-1.330;2024-01-10T09:21:37;49.33;;;30.60;;
48795;SDS011;34607;48.520;-1.330;2024-01-10T09:24:04;47.72;;;30.17;;
48795;SDS011;34607;48.520;-1.330;2024-01-10T09:26:34;46.55;;;29.88;;
48795;SDS011;34607;48.520;-1.330;2024-01-10T09:29:01;47.08;;;30.75;;
48795;SDS011;34607;48.520;-1.330;2024-01-10T09:31:28;50.88;;;30.38;;
48795;SDS011;34607;48.520;-1.330;2024-01-10T09:33:55;53.25;;;32.30;;
48795;SDS011;34607;48.520;-1.330;2024-01-10T09:36:24;48.22;;;29.65;;
48795;SDS011;34607;48.520;-1.330;2024-01-10T09:38:51;53.28;;;32.60;;
48795;SDS011;34607;48.520;-1.330;2024-01-10T09:41:19;51.40;;;29.90;;
48795;SDS011;34607;48.520;-1.330;2024-01-10T09:43:46;50.83;;;29.77;;
48795;SDS011;34607;48.520;-1.330;2024-01-10T09:46:13;51.30;;;31.88;;
48795;SDS011;34607;48.520;-1.330;2024-01-10T09:48:43;47.45;;;29.17;;
48795;SDS011;34607;48.520;-1.330;2024-01-10T09:51:10;48.47;;;30.77;;
48795;SDS011;34607;48.520;-1.330;2024-01-10T09:53:42;44.90;;;29.65;;
48795;SDS011;34607;48.520;-1.330;2024-01-10T09:56:15;47.78;;;29.55;;
48795;SDS011;34607;48.520;-1.330;2024-01-10T09:58:42;47.28;;;30.23;;
48795;SDS011;34607;48.520;-1.330;2024-01-10T10:01:10;48.28;;;30.55;;
48795;SDS011;34607;48.520;-1.330;2024-01-10T10:03:37;48.03;;;30.30;;
48795;SDS011;34607;48.520;-1.330;2024-01-10T10:06:07;48.08;;;28.45;;
48795;SDS011;34607;48.520;-1.330;2024-01-10T10:08:34;45.90;;;29.42;;
48795;SDS011;34607;48.520;-1.330;2024-01-10T10:11:04;48.92;;;30.13;;
48795;SDS011;34607;48.520;-1.330;2024-01-10T10:13:31;51.33;;;31.65;;
48795;SDS011;34607;48.520;-1.330;2024-01-10T10:16:01;48.42;;;28.77;;
48795;SDS011;34607;48.520;-1.330;2024-01-10T10:18:29;53.10;;;30.83;;
48795;SDS011;34607;48.520;-1.330;2024-01-10T10:21:06;45.67;;;28.02;;
48795;SDS011;34607;48.520;-1.330;2024-01-10T10:23:35;50.58;;;31.00;;
48795;SDS011;34607;48.520;-1.330;2024-01-10T10:26:14;51.63;;;30.10;;
48795;SDS011;34607;48.520;-1.330;2024-01-10T10:28:46;48.53;;;29.45;;
48795;SDS011;34607;48.520;-1.330;2024-01-10T10:31:13;53.17;;;30.60;;
48795;SDS011;34607;48.520;-1.330;2024-01-10T10:33:41;52.33;;;30.75;;
48795;SDS011;34607;48.520;-1.330;2024-01-10T10:36:10;50.92;;;29.48;;
48795;SDS011;34607;48.520;-1.330;2024-01-10T10:38:37;54.03;;;31.15;;
48795;SDS011;34607;48.520;-1.330;2024-01-10T10:41:04;47.30;;;28.75;;
48795;SDS011;34607;48.520;-1.330;2024-01-10T10:43:37;47.15;;;28.65;;
48795;SDS011;34607;48.520;-1.330;2024-01-10T10:46:06;48.13;;;30.35;;
48795;SDS011;34607;48.520;-1.330;2024-01-10T10:48:35;50.15;;;30.65;;
48795;SDS011;34607;48.520;-1.330;2024-01-10T10:51:03;53.50;;;31.38;;
48795;SDS011;34607;48.520;-1.330;2024-01-10T10:53:34;52.35;;;31.02;;
48795;SDS011;34607;48.520;-1.330;2024-01-10T10:56:02;55.55;;;32.83;;
48795;SDS011;34607;48.520;-1.330;2024-01-10T10:58:35;54.70;;;31.67;;
48795;SDS011;34607;48.520;-1.330;2024-01-10T11:01:06;49.42;;;30.77;;
48795;SDS011;34607;48.520;-1.330;2024-01-10T11:03:34;52.53;;;30.60;;
48795;SDS011;34607;48.520;-1.330;2024-01-10T11:06:03;48.22;;;29.27;;
48795;SDS011;34607;48.520;-1.330;2024-01-10T11:08:33;49.15;;;30.55;;
48795;SDS011;34607;48.520;-1.330;2024-01-10T11:11:03;50.03;;;30.90;;
48795;SDS011;34607;48.520;-1.330;2024-01-10T11:13:53;50.25;;;31.15;;
48795;SDS011;34607;48.520;-1.330;2024-01-10T11:19:51;47.55;;;30.27;;
48795;SDS011;34607;48.520;-1.330;2024-01-10T11:22:49;53.05;;;32.17;;
48795;SDS011;34607;48.520;-1.330;2024-01-10T11:25:29;51.45;;;31.02;;
48795;SDS011;34607;48.520;-1.330;2024-01-10T11:27:57;49.50;;;31.60;;
48795;SDS011;34607;48.520;-1.330;2024-01-10T11:30:31;52.28;;;32.17;;
48795;SDS011;34607;48.520;-1.330;2024-01-10T11:33:01;49.92;;;31.95;;
48795;SDS011;34607;48.520;-1.330;2024-01-10T11:35:28;48.58;;;30.90;;
48795;SDS011;34607;48.520;-1.330;2024-01-10T11:37:59;49.88;;;31.15;;
48795;SDS011;34607;48.520;-1.330;2024-01-10T11:43:12;50.05;;;30.38;;
48795;SDS011;34607;48.520;-1.330;2024-01-10T11:45:51;51.90;;;29.38;;
48795;SDS011;34607;48.520;-1.330;2024-01-10T11:48:25;53.55;;;33.53;;
48795;SDS011;34607;48.520;-1.330;2024-01-10T11:50:52;52.88;;;32.13;;
48795;SDS011;34607;48.520;-1.330;2024-01-10T11:56:08;49.97;;;30.33;;
48795;SDS011;34607;48.520;-1.330;2024-01-10T11:58:55;48.08;;;30.95;;
48795;SDS011;34607;48.520;-1.330;2024-01-10T12:01:29;51.10;;;31.08;;
48795;SDS011;34607;48.520;-1.330;2024-01-10T12:03:56;46.60;;;29.73;;
48795;SDS011;34607;48.520;-1.330;2024-01-10T12:06:25;50.30;;;30.00;;
48795;SDS011;34607;48.520;-1.330;2024-01-10T12:08:52;48.15;;;30.70;;
48795;SDS011;34607;48.520;-1.330;2024-01-10T12:11:19;48.90;;;30.67;;
48795;SDS011;34607;48.520;-1.330;2024-01-10T12:13:46;46.05;;;29.58;;
48795;SDS011;34607;48.520;-1.330;2024-01-10T12:16:14;49.30;;;30.13;;
48795;SDS011;34607;48.520;-1.330;2024-01-10T12:18:44;48.05;;;29.13;;
48795;SDS011;34607;48.520;-1.330;2024-01-10T12:21:11;49.35;;;30.55;;
48795;SDS011;34607;48.520;-1.330;2024-01-10T12:23:38;43.05;;;29.40;;
48795;SDS011;34607;48.520;-1.330;2024-01-10T12:26:07;49.72;;;31.05;;
48795;SDS011;34607;48.520;-1.330;2024-01-10T12:28:37;47.75;;;30.58;;
48795;SDS011;34607;48.520;-1.330;2024-01-10T12:31:04;46.25;;;28.55;;
48795;SDS011;34607;48.520;-1.330;2024-01-10T12:33:33;44.92;;;27.58;;
48795;SDS011;34607;48.520;-1.330;2024-01-10T12:36:06;46.67;;;29.48;;
48795;SDS011;34607;48.520;-1.330;2024-01-10T12:38:34;47.25;;;30.50;;
48795;SDS011;34607;48.520;-1.330;2024-01-10T12:41:03;44.65;;;29.05;;
48795;SDS011;34607;48.520;-1.330;2024-01-10T12:43:30;48.45;;;29.20;;
48795;SDS011;34607;48.520;-1.330;2024-01-10T12:46:05;43.17;;;27.27;;
48795;SDS011;34607;48.520;-1.330;2024-01-10T12:48:33;44.65;;;27.95;;
48795;SDS011;34607;48.520;-1.330;2024-01-10T12:51:02;40.72;;;27.13;;
48795;SDS011;34607;48.520;-1.330;2024-01-10T12:53:33;48.67;;;29.92;;
48795;SDS011;34607;48.520;-1.330;2024-01-10T12:56:01;45.67;;;28.65;;
48795;SDS011;34607;48.520;-1.330;2024-01-10T12:58:29;46.97;;;30.58;;
48795;SDS011;34607;48.520;-1.330;2024-01-10T13:00:57;41.83;;;27.42;;
48795;SDS011;34607;48.520;-1.330;2024-01-10T13:03:24;43.72;;;29.25;;
48795;SDS011;34607;48.520;-1.330;2024-01-10T13:05:52;45.10;;;28.60;;
48795;SDS011;34607;48.520;-1.330;2024-01-10T13:08:19;45.60;;;30.48;;
48795;SDS011;34607;48.520;-1.330;2024-01-10T13:10:47;48.22;;;30.95;;
48795;SDS011;34607;48.520;-1.330;2024-01-10T13:13:15;48.25;;;29.65;;
48795;SDS011;34607;48.520;-1.330;2024-01-10T13:15:43;48.97;;;29.95;;
48795;SDS011;34607;48.520;-1.330;2024-01-10T13:18:10;46.63;;;29.88;;
48795;SDS011;34607;48.520;-1.330;2024-01-10T13:20:38;47.33;;;31.25;;
48795;SDS011;34607;48.520;-1.330;2024-01-10T13:23:05;47.22;;;29.88;;
48795;SDS011;34607;48.520;-1.330;2024-01-10T13:25:33;46.70;;;29.23;;
48795;SDS011;34607;48.520;-1.330;2024-01-10T13:28:02;46.13;;;30.58;;
48795;SDS011;34607;48.520;-1.330;2024-01-10T13:30:29;43.63;;;29.90;;
48795;SDS011;34607;48.520;-1.330;2024-01-10T13:32:57;47.33;;;29.30;;
48795;SDS011;34607;48.520;-1.330;2024-01-10T13:35:25;46.53;;;29.55;;
48795;SDS011;34607;48.520;-1.330;2024-01-10T13:37:53;46.30;;;29.27;;
48795;SDS011;34607;48.520;-1.330;2024-01-10T13:40:20;41.72;;;27.20;;
48795;SDS011;34607;48.520;-1.330;2024-01-10T13:42:49;42.75;;;27.75;;
48795;SDS011;34607;48.520;-1.330;2024-01-10T13:45:18;48.30;;;30.45;;
48795;SDS011;34607;48.520;-1.330;2024-01-10T13:47:45;47.97;;;29.98;;
48795;SDS011;34607;48.520;-1.330;2024-01-10T13:50:13;42.25;;;27.58;;
48795;SDS011;34607;48.520;-1.330;2024-01-10T13:52:40;41.45;;;26.63;;
48795;SDS011;34607;48.520;-1.330;2024-01-10T13:55:07;43.55;;;29.05;;
48795;SDS011;34607;48.520;-1.330;2024-01-10T13:57:34;44.55;;;29.27;;
48795;SDS011;34607;48.520;-1.330;2024-01-10T14:00:02;44.85;;;29.40;;
48795;SDS011;34607;48.520;-1.330;2024-01-10T14:02:38;42.58;;;27.45;;
48795;SDS011;34607;48.520;-1.330;2024-01-10T14:05:05;42.70;;;28.30;;
48795;SDS011;34607;48.520;-1.330;2024-01-10T14:07:33;40.88;;;26.95;;
48795;SDS011;34607;48.520;-1.330;2024-01-10T14:10:00;40.90;;;26.77;;
48795;SDS011;34607;48.520;-1.330;2024-01-10T14:12:28;39.88;;;26.25;;
48795;SDS011;34607;48.520;-1.330;2024-01-10T14:14:55;35.78;;;24.48;;
48795;SDS011;34607;48.520;-1.330;2024-01-10T14:17:22;39.22;;;25.73;;
48795;SDS011;34607;48.520;-1.330;2024-01-10T14:19:52;37.17;;;25.40;;
48795;SDS011;34607;48.520;-1.330;2024-01-10T14:22:19;35.67;;;24.52;;
48795;SDS011;34607;48.520;-1.330;2024-01-10T14:24:46;38.25;;;25.85;;
48795;SDS011;34607;48.520;-1.330;2024-01-10T14:27:13;42.67;;;25.02;;
48795;SDS011;34607;48.520;-1.330;2024-01-10T14:29:40;31.23;;;22.92;;
48795;SDS011;34607;48.520;-1.330;2024-01-10T14:32:07;35.63;;;23.15;;
48795;SDS011;34607;48.520;-1.330;2024-01-10T14:34:34;40.88;;;24.67;;
48795;SDS011;34607;48.520;-1.330;2024-01-10T14:37:03;33.80;;;23.02;;
48795;SDS011;34607;48.520;-1.330;2024-01-10T14:39:30;34.95;;;23.30;;
48795;SDS011;34607;48.520;-1.330;2024-01-10T14:41:57;35.92;;;24.38;;
48795;SDS011;34607;48.520;-1.330;2024-01-10T14:44:24;32.30;;;21.65;;
48795;SDS011;34607;48.520;-1.330;2024-01-10T14:46:51;36.65;;;24.05;;
48795;SDS011;34607;48.520;-1.330;2024-01-10T14:49:19;37.95;;;24.77;;
48795;SDS011;34607;48.520;-1.330;2024-01-10T14:51:46;39.53;;;26.25;;
48795;SDS011;34607;48.520;-1.330;2024-01-10T14:54:14;42.53;;;27.60;;
48795;SDS011;34607;48.520;-1.330;2024-01-10T14:56:41;41.65;;;27.42;;
48795;SDS011;34607;48.520;-1.330;2024-01-10T14:59:09;43.10;;;28.77;;
48795;SDS011;34607;48.520;-1.330;2024-01-10T15:01:37;42.20;;;26.50;;
48795;SDS011;34607;48.520;-1.330;2024-01-10T15:04:04;38.78;;;26.38;;
48795;SDS011;34607;48.520;-1.330;2024-01-10T15:06:31;40.92;;;27.48;;
48795;SDS011;34607;48.520;-1.330;2024-01-10T15:08:58;41.78;;;28.40;;
48795;SDS011;34607;48.520;-1.330;2024-01-10T15:11:27;39.95;;;26.52;;
48795;SDS011;34607;48.520;-1.330;2024-01-10T15:13:54;41.78;;;27.60;;
48795;SDS011;34607;48.520;-1.330;2024-01-10T15:16:21;46.30;;;28.77;;
48795;SDS011;34607;48.520;-1.330;2024-01-10T15:18:48;41.10;;;27.42;;
48795;SDS011;34607;48.520;-1.330;2024-01-10T15:21:17;40.95;;;26.88;;
48795;SDS011;34607;48.520;-1.330;2024-01-10T15:23:45;43.10;;;28.20;;
48795;SDS011;34607;48.520;-1.330;2024-01-10T15:26:14;46.65;;;29.27;;
48795;SDS011;34607;48.520;-1.330;2024-01-10T15:28:43;43.35;;;28.10;;
48795;SDS011;34607;48.520;-1.330;2024-01-10T15:31:13;49.75;;;34.55;;
48795;SDS011;34607;48.520;-1.330;2024-01-10T15:33:41;44.75;;;29.77;;
48795;SDS011;34607;48.520;-1.330;2024-01-10T15:36:08;49.78;;;31.92;;
48795;SDS011;34607;48.520;-1.330;2024-01-10T15:38:35;41.63;;;29.00;;
48795;SDS011;34607;48.520;-1.330;2024-01-10T15:41:03;48.13;;;31.30;;
48795;SDS011;34607;48.520;-1.330;2024-01-10T15:43:32;45.45;;;27.20;;
48795;SDS011;34607;48.520;-1.330;2024-01-10T15:46:01;43.40;;;29.08;;
48795;SDS011;34607;48.520;-1.330;2024-01-10T15:48:28;46.22;;;32.13;;
48795;SDS011;34607;48.520;-1.330;2024-01-10T15:50:55;46.90;;;31.67;;
48795;SDS011;34607;48.520;-1.330;2024-01-10T15:53:23;51.22;;;31.45;;
48795;SDS011;34607;48.520;-1.330;2024-01-10T15:55:50;46.00;;;31.77;;
48795;SDS011;34607;48.520;-1.330;2024-01-10T15:58:17;49.22;;;32.65;;
48795;SDS011;34607;48.520;-1.330;2024-01-10T16:00:44;51.72;;;33.35;;
48795;SDS011;34607;48.520;-1.330;2024-01-10T16:03:13;48.72;;;31.60;;
48795;SDS011;34607;48.520;-1.330;2024-01-10T16:05:40;47.55;;;30.60;;
48795;SDS011;34607;48.520;-1.330;2024-01-10T16:08:07;52.72;;;33.33;;
48795;SDS011;34607;48.520;-1.330;2024-01-10T16:10:34;57.08;;;36.03;;
48795;SDS011;34607;48.520;-1.330;2024-01-10T16:13:01;49.40;;;32.45;;
48795;SDS011;34607;48.520;-1.330;2024-01-10T16:15:28;46.05;;;31.80;;
48795;SDS011;34607;48.520;-1.330;2024-01-10T16:17:55;45.45;;;30.80;;
48795;SDS011;34607;48.520;-1.330;2024-01-10T16:20:23;45.92;;;29.45;;
48795;SDS011;34607;48.520;-1.330;2024-01-10T16:22:51;47.03;;;30.05;;
48795;SDS011;34607;48.520;-1.330;2024-01-10T16:25:18;46.08;;;31.05;;
48795;SDS011;34607;48.520;-1.330;2024-01-10T16:27:45;48.42;;;31.38;;
48795;SDS011;34607;48.520;-1.330;2024-01-10T16:30:12;48.85;;;31.48;;
48795;SDS011;34607;48.520;-1.330;2024-01-10T16:32:39;49.88;;;32.03;;
48795;SDS011;34607;48.520;-1.330;2024-01-10T16:35:06;46.88;;;31.77;;
48795;SDS011;34607;48.520;-1.330;2024-01-10T16:37:35;47.63;;;31.40;;
48795;SDS011;34607;48.520;-1.330;2024-01-10T16:40:03;47.15;;;29.95;;
48795;SDS011;34607;48.520;-1.330;2024-01-10T16:42:30;49.38;;;32.10;;
48795;SDS011;34607;48.520;-1.330;2024-01-10T16:45:00;54.83;;;32.80;;
48795;SDS011;34607;48.520;-1.330;2024-01-10T16:47:27;50.63;;;32.88;;
48795;SDS011;34607;48.520;-1.330;2024-01-10T16:49:54;49.85;;;31.67;;
48795;SDS011;34607;48.520;-1.330;2024-01-10T16:52:21;45.38;;;31.55;;
48795;SDS011;34607;48.520;-1.330;2024-01-10T16:54:50;50.90;;;31.55;;
48795;SDS011;34607;48.520;-1.330;2024-01-10T16:57:17;49.63;;;30.95;;
48795;SDS011;34607;48.520;-1.330;2024-01-10T16:59:44;47.92;;;30.90;;
48795;SDS011;34607;48.520;-1.330;2024-01-10T17:02:11;47.45;;;32.67;;
48795;SDS011;34607;48.520;-1.330;2024-01-10T17:04:39;51.60;;;33.38;;
48795;SDS011;34607;48.520;-1.330;2024-01-10T17:07:06;51.80;;;34.03;;
48795;SDS011;34607;48.520;-1.330;2024-01-10T17:09:34;54.22;;;35.03;;
48795;SDS011;34607;48.520;-1.330;2024-01-10T17:12:06;54.75;;;33.17;;
48795;SDS011;34607;48.520;-1.330;2024-01-10T17:14:34;51.30;;;32.03;;
48795;SDS011;34607;48.520;-1.330;2024-01-10T17:17:02;57.30;;;37.45;;
48795;SDS011;34607;48.520;-1.330;2024-01-10T17:19:29;56.78;;;35.38;;
48795;SDS011;34607;48.520;-1.330;2024-01-10T17:21:56;55.05;;;36.47;;
48795;SDS011;34607;48.520;-1.330;2024-01-10T17:24:23;57.45;;;38.47;;
48795;SDS011;34607;48.520;-1.330;2024-01-10T17:26:50;83.55;;;48.40;;
48795;SDS011;34607;48.520;-1.330;2024-01-10T17:29:19;107.47;;;62.00;;
48795;SDS011;34607;48.520;-1.330;2024-01-10T17:31:46;59.88;;;38.42;;
48795;SDS011;34607;48.520;-1.330;2024-01-10T17:34:13;57.60;;;37.60;;
48795;SDS011;34607;48.520;-1.330;2024-01-10T17:36:40;49.78;;;32.83;;
48795;SDS011;34607;48.520;-1.330;2024-01-10T17:39:07;55.92;;;37.47;;
48795;SDS011;34607;48.520;-1.330;2024-01-10T17:41:34;52.05;;;35.03;;
48795;SDS011;34607;48.520;-1.330;2024-01-10T17:44:01;59.47;;;39.90;;
48795;SDS011;34607;48.520;-1.330;2024-01-10T17:46:30;58.80;;;37.97;;
48795;SDS011;34607;48.520;-1.330;2024-01-10T17:48:57;53.50;;;35.78;;
48795;SDS011;34607;48.520;-1.330;2024-01-10T17:51:24;57.22;;;35.33;;
48795;SDS011;34607;48.520;-1.330;2024-01-10T17:53:52;55.70;;;35.90;;
48795;SDS011;34607;48.520;-1.330;2024-01-10T17:56:21;57.10;;;35.78;;
48795;SDS011;34607;48.520;-1.330;2024-01-10T17:58:48;55.28;;;34.70;;
48795;SDS011;34607;48.520;-1.330;2024-01-10T18:01:15;52.28;;;32.22;;
48795;SDS011;34607;48.520;-1.330;2024-01-10T18:03:44;48.97;;;31.35;;
48795;SDS011;34607;48.520;-1.330;2024-01-10T18:06:11;47.78;;;30.35;;
48795;SDS011;34607;48.520;-1.330;2024-01-10T18:08:38;47.05;;;31.33;;
48795;SDS011;34607;48.520;-1.330;2024-01-10T18:11:05;49.17;;;30.80;;
48795;SDS011;34607;48.520;-1.330;2024-01-10T18:13:32;50.13;;;32.33;;
48795;SDS011;34607;48.520;-1.330;2024-01-10T18:15:59;43.35;;;29.92;;
48795;SDS011;34607;48.520;-1.330;2024-01-10T18:18:28;45.30;;;30.17;;
48795;SDS011;34607;48.520;-1.330;2024-01-10T18:20:59;47.70;;;30.70;;
48795;SDS011;34607;48.520;-1.330;2024-01-10T18:23:27;49.38;;;31.52;;
48795;SDS011;34607;48.520;-1.330;2024-01-10T18:25:54;46.72;;;31.45;;
48795;SDS011;34607;48.520;-1.330;2024-01-10T18:28:21;52.25;;;32.70;;
48795;SDS011;34607;48.520;-1.330;2024-01-10T18:30:49;45.10;;;30.70;;
48795;SDS011;34607;48.520;-1.330;2024-01-10T18:33:16;47.95;;;31.48;;
48795;SDS011;34607;48.520;-1.330;2024-01-10T18:35:43;43.20;;;29.58;;
48795;SDS011;34607;48.520;-1.330;2024-01-10T18:38:11;46.17;;;30.55;;
48795;SDS011;34607;48.520;-1.330;2024-01-10T18:40:41;45.63;;;30.35;;
48795;SDS011;34607;48.520;-1.330;2024-01-10T18:43:08;44.88;;;30.10;;
48795;SDS011;34607;48.520;-1.330;2024-01-10T18:45:36;48.90;;;29.33;;
48795;SDS011;34607;48.520;-1.330;2024-01-10T18:48:04;47.15;;;31.50;;
48795;SDS011;34607;48.520;-1.330;2024-01-10T18:50:31;49.25;;;31.50;;
48795;SDS011;34607;48.520;-1.330;2024-01-10T18:52:58;49.08;;;32.05;;
48795;SDS011;34607;48.520;-1.330;2024-01-10T18:55:28;48.65;;;31.33;;
48795;SDS011;34607;48.520;-1.330;2024-01-10T18:57:56;47.38;;;31.33;;
48795;SDS011;34607;48.520;-1.330;2024-01-10T19:00:23;50.38;;;31.17;;
48795;SDS011;34607;48.520;-1.330;2024-01-10T19:02:51;47.67;;;32.08;;
48795;SDS011;34607;48.520;-1.330;2024-01-10T19:05:20;44.55;;;30.80;;
48795;SDS011;34607;48.520;-1.330;2024-01-10T19:07:47;47.28;;;31.60;;
48795;SDS011;34607;48.520;-1.330;2024-01-10T19:10:15;49.53;;;32.90;;
48795;SDS011;34607;48.520;-1.330;2024-01-10T19:12:43;49.65;;;31.02;;
48795;SDS011;34607;48.520;-1.330;2024-01-10T19:15:10;46.63;;;31.35;;
48795;SDS011;34607;48.520;-1.330;2024-01-10T19:17:39;49.88;;;31.15;;
48795;SDS011;34607;48.520;-1.330;2024-01-10T19:20:07;50.83;;;31.35;;
48795;SDS011;34607;48.520;-1.330;2024-01-10T19:22:34;47.65;;;32.88;;
48795;SDS011;34607;48.520;-1.330;2024-01-10T19:25:02;47.15;;;31.05;;
48795;SDS011;34607;48.520;-1.330;2024-01-10T19:27:30;51.90;;;35.42;;
48795;SDS011;34607;48.520;-1.330;2024-01-10T19:29:58;45.88;;;31.92;;
48795;SDS011;34607;48.520;-1.330;2024-01-10T19:32:25;50.80;;;33.00;;
48795;SDS011;34607;48.520;-1.330;2024-01-10T19:34:52;53.80;;;32.40;;
48795;SDS011;34607;48.520;-1.330;2024-01-10T19:37:19;51.95;;;32.33;;
48795;SDS011;34607;48.520;-1.330;2024-01-10T19:39:47;51.38;;;32.33;;
48795;SDS011;34607;48.520;-1.330;2024-01-10T19:42:15;47.92;;;32.80;;
48795;SDS011;34607;48.520;-1.330;2024-01-10T19:44:42;48.13;;;31.75;;
48795;SDS011;34607;48.520;-1.330;2024-01-10T19:47:10;51.28;;;32.03;;
48795;SDS011;34607;48.520;-1.330;2024-01-10T19:49:39;48.47;;;32.35;;
48795;SDS011;34607;48.520;-1.330;2024-01-10T19:52:06;50.35;;;32.55;;
48795;SDS011;34607;48.520;-1.330;2024-01-10T19:54:35;47.47;;;32.10;;
48795;SDS011;34607;48.520;-1.330;2024-01-10T19:57:02;43.95;;;30.63;;
48795;SDS011;34607;48.520;-1.330;2024-01-10T19:59:30;47.78;;;31.85;;
48795;SDS011;34607;48.520;-1.330;2024-01-10T20:01:57;48.10;;;30.08;;
48795;SDS011;34607;48.520;-1.330;2024-01-10T20:04:25;47.75;;;31.23;;
48795;SDS011;34607;48.520;-1.330;2024-01-10T20:06:52;50.83;;;32.20;;
48795;SDS011;34607;48.520;-1.330;2024-01-10T20:09:19;50.88;;;32.50;;
48795;SDS011;34607;48.520;-1.330;2024-01-10T20:11:46;47.97;;;30.90;;
48795;SDS011;34607;48.520;-1.330;2024-01-10T20:14:13;48.72;;;32.60;;
48795;SDS011;34607;48.520;-1.330;2024-01-10T20:16:40;49.35;;;31.80;;
48795;SDS011;34607;48.520;-1.330;2024-01-10T20:19:08;45.28;;;30.02;;
48795;SDS011;34607;48.520;-1.330;2024-01-10T20:21:36;45.28;;;31.38;;
48795;SDS011;34607;48.520;-1.330;2024-01-10T20:24:04;46.03;;;30.20;;
48795;SDS011;34607;48.520;-1.330;2024-01-10T20:26:31;43.03;;;30.75;;
48795;SDS011;34607;48.520;-1.330;2024-01-10T20:28:59;49.50;;;31.15;;
48795;SDS011;34607;48.520;-1.330;2024-01-10T20:31:26;49.50;;;30.75;;
48795;SDS011;34607;48.520;-1.330;2024-01-10T20:33:53;48.55;;;31.23;;
48795;SDS011;34607;48.520;-1.330;2024-01-10T20:36:20;44.78;;;32.03;;
48795;SDS011;34607;48.520;-1.330;2024-01-10T20:38:49;47.40;;;31.13;;
48795;SDS011;34607;48.520;-1.330;2024-01-10T20:41:16;47.22;;;30.90;;
48795;SDS011;34607;48.520;-1.330;2024-01-10T20:43:43;46.22;;;30.38;;
48795;SDS011;34607;48.520;-1.330;2024-01-10T20:46:11;50.90;;;33.08;;
48795;SDS011;34607;48.520;-1.330;2024-01-10T20:48:39;46.35;;;31.95;;
48795;SDS011;34607;48.520;-1.330;2024-01-10T20:51:06;50.75;;;32.47;;
48795;SDS011;34607;48.520;-1.330;2024-01-10T20:53:33;49.90;;;30.88;;
48795;SDS011;34607;48.520;-1.330;2024-01-10T20:56:02;47.53;;;30.60;;
48795;SDS011;34607;48.520;-1.330;2024-01-10T20:58:30;50.47;;;33.53;;
48795;SDS011;34607;48.520;-1.330;2024-01-10T21:00:57;49.33;;;32.33;;
48795;SDS011;34607;48.520;-1.330;2024-01-10T21:03:24;48.90;;;31.63;;
48795;SDS011;34607;48.520;-1.330;2024-01-10T21:05:54;50.97;;;33.03;;
48795;SDS011;34607;48.520;-1.330;2024-01-10T21:08:21;50.60;;;32.47;;
48795;SDS011;34607;48.520;-1.330;2024-01-10T21:10:48;46.72;;;32.15;;
48795;SDS011;34607;48.520;-1.330;2024-01-10T21:13:17;52.63;;;35.45;;
48795;SDS011;34607;48.520;-1.330;2024-01-10T21:15:44;51.65;;;33.47;;
48795;SDS011;34607;48.520;-1.330;2024-01-10T21:18:11;47.10;;;32.65;;
48795;SDS011;34607;48.520;-1.330;2024-01-10T21:20:38;51.90;;;33.40;;
48795;SDS011;34607;48.520;-1.330;2024-01-10T21:23:05;50.58;;;32.30;;
48795;SDS011;34607;48.520;-1.330;2024-01-10T21:25:32;49.53;;;33.97;;
48795;SDS011;34607;48.520;-1.330;2024-01-10T21:28:01;49.88;;;32.25;;
48795;SDS011;34607;48.520;-1.330;2024-01-10T21:30:33;45.78;;;31.23;;
48795;SDS011;34607;48.520;-1.330;2024-01-10T21:33:00;49.35;;;32.55;;
48795;SDS011;34607;48.520;-1.330;2024-01-10T21:35:28;46.00;;;30.92;;
48795;SDS011;34607;48.520;-1.330;2024-01-10T21:37:56;51.40;;;32.88;;
48795;SDS011;34607;48.520;-1.330;2024-01-10T21:40:23;49.17;;;32.00;;
48795;SDS011;34607;48.520;-1.330;2024-01-10T21:42:50;52.15;;;32.75;;
48795;SDS011;34607;48.520;-1.330;2024-01-10T21:45:17;47.67;;;31.50;;
48795;SDS011;34607;48.520;-1.330;2024-01-10T21:47:48;49.45;;;32.65;;
48795;SDS011;34607;48.520;-1.330;2024-01-10T21:50:15;47.58;;;32.75;;
48795;SDS011;34607;48.520;-1.330;2024-01-10T21:52:43;48.75;;;32.83;;
48795;SDS011;34607;48.520;-1.330;2024-01-10T21:55:10;46.97;;;31.55;;
48795;SDS011;34607;48.520;-1.330;2024-01-10T21:57:37;53.17;;;31.95;;
48795;SDS011;34607;48.520;-1.330;2024-01-10T22:00:04;45.22;;;31.23;;
48795;SDS011;34607;48.520;-1.330;2024-01-10T22:02:32;48.45;;;32.40;;
48795;SDS011;34607;48.520;-1.330;2024-01-10T22:05:01;45.13;;;30.40;;
48795;SDS011;34607;48.520;-1.330;2024-01-10T22:07:29;44.00;;;30.17;;
